Time;durP1;ratioP1;P1;durP2;ratioP2;P2;SDS_P1;SDS_P2;PMS_P1;PMS_P2;Temp;Humidity;BMP_temperature;BMP_pressure;BME280_temperature;BME280_humidity;BME280_pressure;Samples;Min_cycle;Max_cycle;Signal;HPM_P1;HPM_P2
2022/04/30 00:02:08;;;;;;;12.50;8.32;;;7.20;99.90;;;;;;5076675;28;20570;-65
2022/04/30 00:04:45;;;;;;;12.50;7.90;;;7.20;99.90;;;;;;5076352;28;20470;-63
2022/04/30 00:07:19;;;;;;;11.32;7.47;;;7.20;99.90;;;;;;5076858;28;20045;-63
2022/04/30 00:09:46;;;;;;;11.85;7.88;;;7.20;99.90;;;;;;5077370;28;20079;-63
2022/04/30 00:12:12;;;;;;;11.10;7.00;;;7.20;99.90;;;;;;5075520;28;20509;-63
2022/04/30 00:14:39;;;;;;;9.80;7.32;;;7.20;99.90;;;;;;5077182;28;20131;-63
2022/04/30 00:17:06;;;;;;;10.98;7.40;;;7.10;99.90;;;;;;5076711;28;20123;-62
2022/04/30 00:19:32;;;;;;;15.45;7.85;;;7.00;99.90;;;;;;5076049;28;20540;-63
2022/04/30 00:21:58;;;;;;;11.43;7.53;;;7.10;99.90;;;;;;5077098;28;20045;-63
2022/04/30 00:24:26;;;;;;;11.63;7.30;;;7.00;99.90;;;;;;5075505;28;20290;-63
2022/04/30 00:26:52;;;;;;;11.38;7.40;;;7.00;99.90;;;;;;5076982;28;20071;-62
2022/04/30 00:29:18;;;;;;;12.35;7.57;;;7.00;99.90;;;;;;5073355;28;20088;-61
2022/04/30 00:31:44;;;;;;;13.73;6.97;;;7.00;99.90;;;;;;5073813;28;20080;-62
2022/04/30 00:34:10;;;;;;;10.93;7.03;;;6.90;99.90;;;;;;5072986;28;20045;-63
2022/04/30 00:36:36;;;;;;;15.73;7.18;;;6.90;99.90;;;;;;5073832;28;20044;-63
2022/04/30 00:39:03;;;;;;;10.57;6.97;;;6.80;99.90;;;;;;5073832;28;20133;-63
2022/04/30 00:41:32;;;;;;;16.10;7.80;;;6.80;99.90;;;;;;5071877;28;20040;-63
2022/04/30 00:43:58;;;;;;;11.43;7.07;;;6.80;99.90;;;;;;5073659;28;20091;-63
2022/04/30 00:46:24;;;;;;;11.27;6.93;;;6.80;99.90;;;;;;5073125;28;20047;-63
2022/04/30 00:48:51;;;;;;;10.80;6.97;;;6.70;99.90;;;;;;5072435;28;20041;-65
2022/04/30 00:51:19;;;;;;;10.60;6.72;;;6.70;99.90;;;;;;5072987;28;20397;-62
2022/04/30 00:53:50;;;;;;;9.48;6.38;;;6.70;99.90;;;;;;5073357;28;20064;-61
2022/04/30 00:56:23;;;;;;;10.95;6.70;;;6.70;99.90;;;;;;5055273;28;20045;-63
2022/04/30 00:58:50;;;;;;;13.85;6.32;;;6.70;99.90;;;;;;5072269;28;20466;-63
2022/04/30 01:01:17;;;;;;;10.50;6.88;;;6.70;99.90;;;;;;5072596;28;20449;-63
2022/04/30 01:03:43;;;;;;;11.02;6.30;;;6.70;99.90;;;;;;5073145;28;20037;-62
2022/04/30 01:06:10;;;;;;;10.25;6.20;;;6.70;99.90;;;;;;5072713;28;20128;-64
2022/04/30 01:08:37;;;;;;;11.32;6.32;;;6.70;99.90;;;;;;5073369;28;20470;-62
2022/04/30 01:11:05;;;;;;;12.63;6.90;;;6.60;99.90;;;;;;5071852;28;20067;-63
2022/04/30 01:13:35;;;;;;;10.13;6.55;;;6.60;99.90;;;;;;5071336;28;20044;-63
2022/04/30 01:16:03;;;;;;;11.65;6.20;;;6.70;99.90;;;;;;5072892;28;20097;-62
2022/04/30 01:18:29;;;;;;;11.23;6.28;;;6.60;99.90;;;;;;5072495;28;20127;-63
2022/04/30 01:20:59;;;;;;;11.00;6.40;;;6.60;99.90;;;;;;5073078;28;20135;-63
2022/04/30 01:23:26;;;;;;;7.55;5.95;;;6.60;99.90;;;;;;5072332;28;20045;-63
2022/04/30 01:25:53;;;;;;;8.68;5.90;;;6.60;99.90;;;;;;5072895;28;20057;-62
2022/04/30 01:28:20;;;;;;;8.57;5.90;;;6.60;99.90;;;;;;5072117;28;20087;-63
2022/04/30 01:30:46;;;;;;;15.23;6.63;;;6.60;99.90;;;;;;5072738;28;20441;-63
2022/04/30 01:38:45;;;;;;;11.02;6.75;;;6.60;99.90;;;;;;5071568;28;20076;-62
2022/04/30 01:41:11;;;;;;;11.88;6.25;;;6.50;99.90;;;;;;5072314;28;20439;-62
2022/04/30 01:43:36;;;;;;;10.45;6.50;;;6.50;99.90;;;;;;5072296;28;20157;-62
2022/04/30 01:46:03;;;;;;;10.00;6.15;;;6.50;99.90;;;;;;5072794;28;20470;-63
2022/04/30 01:48:30;;;;;;;9.30;6.40;;;6.50;99.90;;;;;;5070703;28;20504;-62
2022/04/30 01:50:56;;;;;;;9.55;6.50;;;6.50;99.90;;;;;;5070829;28;20194;-62
2022/04/30 01:53:21;;;;;;;10.05;5.93;;;6.50;99.90;;;;;;5071831;28;20135;-62
2022/04/30 01:55:47;;;;;;;10.70;5.75;;;6.50;99.90;;;;;;5071063;28;20044;-63
2022/04/30 01:58:13;;;;;;;8.25;5.63;;;6.60;99.90;;;;;;5054419;28;20514;-63
2022/04/30 02:00:39;;;;;;;9.80;6.18;;;6.50;99.90;;;;;;5072010;28;20040;-62
2022/04/30 02:03:07;;;;;;;10.02;5.95;;;6.50;99.90;;;;;;5072149;28;20405;-62
2022/04/30 02:05:35;;;;;;;10.90;6.43;;;6.50;99.90;;;;;;5071175;28;20141;-63
2022/04/30 02:08:07;;;;;;;9.88;6.70;;;6.50;99.90;;;;;;5072094;28;20478;-62
2022/04/30 02:10:38;;;;;;;14.40;6.82;;;6.40;99.90;;;;;;5071334;28;20052;-62
2022/04/30 02:13:06;;;;;;;13.50;6.68;;;6.40;99.90;;;;;;5070789;28;20067;-63
2022/04/30 02:15:33;;;;;;;10.82;6.15;;;6.40;99.90;;;;;;5071392;28;20048;-62
2022/04/30 02:18:00;;;;;;;12.70;5.97;;;6.40;99.90;;;;;;5071781;28;20048;-62
2022/04/30 02:20:29;;;;;;;9.75;6.07;;;6.40;99.90;;;;;;5070824;28;20091;-62
2022/04/30 02:23:01;;;;;;;9.75;6.45;;;6.40;99.90;;;;;;5071484;28;20518;-63
2022/04/30 02:25:28;;;;;;;10.25;5.90;;;6.40;99.90;;;;;;5071248;28;20137;-62
2022/04/30 02:27:59;;;;;;;11.10;6.00;;;6.40;99.90;;;;;;5071624;28;20049;-62
2022/04/30 02:30:27;;;;;;;11.13;6.40;;;6.40;99.90;;;;;;5069652;28;20059;-63
2022/04/30 02:33:08;;;;;;;10.10;5.95;;;6.30;99.90;;;;;;5070039;28;20132;-62
2022/04/30 02:35:35;;;;;;;11.65;6.40;;;6.30;99.90;;;;;;5070102;28;20437;-63
2022/04/30 02:38:05;;;;;;;8.50;6.25;;;6.40;99.90;;;;;;5070608;28;20051;-62
2022/04/30 02:40:33;;;;;;;10.65;6.22;;;6.30;99.90;;;;;;5070696;28;20049;-62
2022/04/30 02:43:06;;;;;;;9.38;6.00;;;6.30;99.90;;;;;;5071122;28;20049;-62
2022/04/30 02:45:33;;;;;;;11.40;6.03;;;6.30;99.90;;;;;;5070985;28;20079;-62
2022/04/30 02:47:59;;;;;;;9.65;5.60;;;6.30;99.90;;;;;;5053470;28;20125;-62
2022/04/30 02:50:25;;;;;;;9.60;5.90;;;6.60;99.90;;;;;;5070721;28;20056;-63
2022/04/30 02:52:54;;;;;;;10.85;6.18;;;6.30;99.90;;;;;;5070475;28;20048;-63
2022/04/30 02:55:20;;;;;;;7.15;5.75;;;6.30;99.90;;;;;;5070277;28;20429;-63
2022/04/30 03:00:46;;;;;;;8.35;5.95;;;6.30;99.90;;;;;;5070507;28;20505;-62
2022/04/30 03:03:13;;;;;;;10.82;6.25;;;6.30;99.90;;;;;;5071212;28;20095;-62
2022/04/30 03:05:43;;;;;;;10.18;6.43;;;6.30;99.90;;;;;;5070695;28;20090;-62
2022/04/30 03:08:19;;;;;;;11.02;6.10;;;6.30;99.90;;;;;;5070175;28;20470;-62
2022/04/30 03:10:48;;;;;;;12.43;6.03;;;6.30;99.90;;;;;;5069664;28;20052;-62
2022/04/30 03:13:14;;;;;;;9.55;6.35;;;6.20;99.90;;;;;;5069740;28;20047;-62
2022/04/30 03:15:45;;;;;;;11.50;6.60;;;6.20;99.90;;;;;;5069299;28;20048;-62
2022/04/30 03:23:41;;;;;;;10.93;6.45;;;6.20;99.90;;;;;;5070760;28;20053;-64
2022/04/30 03:26:08;;;;;;;12.55;6.80;;;6.20;99.90;;;;;;5053477;28;20045;-62
2022/04/30 03:28:38;;;;;;;10.20;6.13;;;6.20;99.90;;;;;;5070669;28;20495;-63
2022/04/30 03:31:05;;;;;;;12.15;6.45;;;6.30;99.90;;;;;;5053686;28;20094;-62
2022/04/30 03:33:31;;;;;;;8.65;5.97;;;6.30;99.90;;;;;;5070300;28;20040;-63
2022/04/30 03:35:56;;;;;;;11.02;6.78;;;6.30;99.90;;;;;;5070001;28;20374;-62
2022/04/30 03:38:22;;;;;;;10.63;6.50;;;6.30;99.90;;;;;;5069827;28;20199;-63
2022/04/30 03:40:48;;;;;;;11.05;6.35;;;6.30;99.90;;;;;;5070389;28;20087;-62
2022/04/30 03:43:16;;;;;;;7.85;5.75;;;6.30;99.90;;;;;;5069580;28;20078;-63
2022/04/30 03:45:42;;;;;;;10.90;6.00;;;6.40;99.90;;;;;;5070203;28;20059;-63
2022/04/30 03:48:09;;;;;;;13.02;6.28;;;6.40;99.90;;;;;;5070836;28;20049;-64
2022/04/30 03:50:34;;;;;;;10.63;6.32;;;6.40;99.90;;;;;;5068777;28;20513;-62
2022/04/30 03:53:00;;;;;;;11.32;6.63;;;6.40;99.90;;;;;;5070501;28;20057;-62
2022/04/30 03:55:27;;;;;;;10.00;5.88;;;6.40;99.90;;;;;;5070160;28;20044;-62
2022/04/30 03:57:56;;;;;;;9.77;6.35;;;6.40;99.90;;;;;;5069366;28;20049;-62
2022/04/30 04:00:23;;;;;;;10.48;5.80;;;6.40;99.90;;;;;;5053663;28;20051;-63
2022/04/30 04:02:49;;;;;;;13.07;6.43;;;6.40;99.90;;;;;;5070668;28;20051;-61
2022/04/30 04:05:17;;;;;;;9.07;6.13;;;6.40;99.90;;;;;;5074108;28;20087;-62
2022/04/30 04:07:43;;;;;;;9.82;5.47;;;6.60;99.90;;;;;;5072520;28;20055;-62
2022/04/30 04:10:10;;;;;;;9.15;5.78;;;6.40;99.90;;;;;;5074106;28;20149;-63
2022/04/30 04:12:37;;;;;;;11.13;6.13;;;6.40;99.90;;;;;;5073575;28;20466;-64
2022/04/30 04:17:49;;;;;;;10.02;6.63;;;6.40;99.90;;;;;;5072734;28;20049;-61
2022/04/30 04:20:16;;;;;;;12.15;6.28;;;6.50;99.90;;;;;;5074034;28;20040;-62
2022/04/30 04:22:42;;;;;;;8.77;6.63;;;6.50;99.90;;;;;;5073895;28;20081;-63
2022/04/30 04:27:56;;;;;;;9.93;6.18;;;6.50;99.90;;;;;;5073462;28;20187;-62
2022/04/30 04:30:26;;;;;;;11.45;6.65;;;6.60;99.90;;;;;;5073605;28;20546;-62
2022/04/30 04:32:53;;;;;;;10.65;7.32;;;6.60;99.90;;;;;;5073333;28;20110;-63
2022/04/30 04:35:19;;;;;;;10.05;6.90;;;6.70;99.90;;;;;;5073802;28;20049;-62
2022/04/30 04:37:46;;;;;;;9.15;6.50;;;6.70;99.90;;;;;;5073065;28;20048;-62
2022/04/30 04:40:13;;;;;;;11.45;7.00;;;6.70;99.90;;;;;;5073576;28;20482;-63
2022/04/30 04:42:40;;;;;;;10.93;6.38;;;6.70;99.90;;;;;;5073273;28;20492;-64
2022/04/30 04:45:07;;;;;;;11.15;6.65;;;6.80;99.90;;;;;;5073440;28;20091;-62
2022/04/30 04:47:39;;;;;;;10.45;6.43;;;6.80;99.90;;;;;;5073567;28;20394;-62
2022/04/30 04:50:08;;;;;;;11.13;6.68;;;6.90;99.90;;;;;;5072008;28;20620;-62
2022/04/30 04:52:34;;;;;;;13.27;7.03;;;6.90;99.90;;;;;;5073393;28;20048;-62
2022/04/30 04:55:00;;;;;;;14.27;7.15;;;6.90;99.90;;;;;;5072463;28;20033;-62
2022/04/30 04:57:26;;;;;;;13.45;6.97;;;6.90;99.90;;;;;;5073198;28;20067;-63
2022/04/30 04:59:53;;;;;;;14.02;7.60;;;7.00;99.90;;;;;;5072845;28;20103;-62
2022/04/30 05:02:20;;;;;;;13.10;7.55;;;7.00;99.90;;;;;;5073113;28;20510;-62
2022/04/30 05:04:46;;;;;;;10.02;6.80;;;7.00;99.90;;;;;;5071571;28;20052;-62
2022/04/30 05:07:12;;;;;;;12.05;7.88;;;7.10;99.90;;;;;;5073201;28;20044;-62
2022/04/30 05:09:38;;;;;;;11.98;6.75;;;7.10;99.90;;;;;;5071600;28;20053;-62
2022/04/30 05:12:04;;;;;;;11.40;6.82;;;7.10;99.90;;;;;;5071301;28;20055;-63
2022/04/30 05:14:33;;;;;;;13.43;7.55;;;7.20;99.90;;;;;;5072466;28;20055;-62
2022/04/30 05:16:59;;;;;;;11.95;7.65;;;7.20;99.90;;;;;;5072553;28;20123;-62
2022/04/30 05:19:25;;;;;;;11.43;8.30;;;7.30;99.90;;;;;;5072619;28;20058;-61
2022/04/30 05:21:51;;;;;;;11.73;7.78;;;7.30;99.90;;;;;;5072477;28;20042;-62
2022/04/30 05:24:16;;;;;;;11.98;7.35;;;7.40;99.90;;;;;;5072929;28;20136;-62
2022/04/30 05:26:42;;;;;;;10.13;7.07;;;7.40;99.90;;;;;;5072825;28;20045;-64
2022/04/30 05:29:08;;;;;;;10.68;7.18;;;7.50;99.90;;;;;;5072394;28;20078;-63
2022/04/30 05:31:34;;;;;;;11.80;7.40;;;7.50;99.90;;;;;;5054397;28;20115;-62
2022/04/30 05:33:59;;;;;;;11.68;6.75;;;7.60;99.90;;;;;;5072166;28;20049;-62
2022/04/30 05:36:25;;;;;;;12.07;7.25;;;7.60;99.90;;;;;;5071329;28;20086;-62
2022/04/30 05:38:51;;;;;;;11.45;7.15;;;7.80;99.90;;;;;;5072073;28;20466;-63
2022/04/30 05:41:18;;;;;;;8.52;6.38;;;7.80;99.90;;;;;;5072327;28;20494;-63
2022/04/30 05:43:43;;;;;;;11.88;6.60;;;7.90;99.90;;;;;;5071074;28;20056;-63
2022/04/30 05:46:09;;;;;;;10.48;6.10;;;8.00;99.90;;;;;;5071953;28;20048;-62
2022/04/30 05:48:35;;;;;;;8.95;6.18;;;8.10;99.90;;;;;;5072182;28;20088;-62
2022/04/30 05:51:04;;;;;;;9.55;6.13;;;8.30;99.90;;;;;;5071279;28;20058;-63
2022/04/30 05:53:30;;;;;;;9.45;5.97;;;8.50;99.90;;;;;;5072052;28;20045;-64
2022/04/30 05:55:56;;;;;;;9.13;5.82;;;8.60;99.90;;;;;;5071649;28;20063;-63
2022/04/30 05:58:22;;;;;;;11.48;6.00;;;8.80;99.90;;;;;;5072079;28;20056;-62
2022/04/30 06:00:48;;;;;;;8.05;5.32;;;8.90;99.90;;;;;;5071877;28;20398;-65
2022/04/30 06:03:14;;;;;;;10.32;6.43;;;9.20;99.90;;;;;;5071961;28;20402;-62
2022/04/30 06:05:39;;;;;;;10.52;6.03;;;9.30;99.90;;;;;;5054129;28;20066;-62
2022/04/30 06:08:06;;;;;;;10.52;5.97;;;9.40;99.90;;;;;;5070081;28;20441;-62
2022/04/30 06:10:32;;;;;;;8.55;5.82;;;9.50;99.90;;;;;;5072025;28;20075;-62
2022/04/30 06:12:58;;;;;;;9.50;5.72;;;9.60;99.90;;;;;;5071123;28;20533;-63
2022/04/30 06:15:24;;;;;;;10.13;6.00;;;9.70;99.90;;;;;;5071923;28;20055;-63
2022/04/30 06:17:50;;;;;;;10.77;5.65;;;9.90;99.90;;;;;;5070306;28;20574;-65
2022/04/30 06:20:15;;;;;;;10.23;5.90;;;10.10;99.90;;;;;;5071636;28;20137;-62
2022/04/30 06:22:41;;;;;;;9.38;5.38;;;10.40;99.90;;;;;;5070316;28;20106;-63
2022/04/30 06:25:08;;;;;;;10.57;6.15;;;10.40;99.90;;;;;;5071304;28;20044;-63
2022/04/30 06:27:34;;;;;;;9.60;5.68;;;10.40;99.90;;;;;;5069608;28;20084;-61
2022/04/30 06:30:00;;;;;;;8.27;6.03;;;10.50;99.90;;;;;;5069955;28;20473;-62
2022/04/30 06:32:26;;;;;;;9.80;6.05;;;10.60;99.90;;;;;;5071377;28;20128;-64
2022/04/30 06:34:52;;;;;;;8.73;6.10;;;10.60;99.90;;;;;;5070096;28;20052;-65
2022/04/30 06:37:18;;;;;;;9.23;5.82;;;10.60;99.90;;;;;;5053468;28;20040;-63
2022/04/30 06:39:45;;;;;;;8.50;6.20;;;10.50;99.90;;;;;;5071334;28;20097;-63
2022/04/30 06:42:11;;;;;;;10.25;6.65;;;10.40;99.90;;;;;;5070905;28;20358;-63
2022/04/30 06:44:36;;;;;;;10.57;6.15;;;10.30;99.90;;;;;;5069944;28;20566;-63
2022/04/30 06:47:03;;;;;;;11.13;6.28;;;10.20;99.90;;;;;;5069608;28;20131;-61
2022/04/30 06:49:29;;;;;;;11.73;6.40;;;10.20;99.90;;;;;;5069494;28;20059;-62
2022/04/30 06:51:54;;;;;;;10.07;6.57;;;10.10;99.90;;;;;;5070981;28;20037;-65
2022/04/30 06:57:08;;;;;;;15.23;6.77;;;10.00;99.90;;;;;;5070486;28;20486;-63
2022/04/30 06:59:41;;;;;;;11.02;6.28;;;10.00;99.90;;;;;;5069939;28;20283;-63
2022/04/30 07:02:17;;;;;;;7.38;5.88;;;10.00;99.90;;;;;;5070542;28;20048;-63
2022/04/30 07:04:46;;;;;;;12.38;6.45;;;10.10;99.90;;;;;;5071024;28;20350;-62
2022/04/30 07:07:12;;;;;;;11.82;6.40;;;10.10;99.90;;;;;;5070638;28;20376;-62
2022/04/30 07:09:39;;;;;;;8.43;5.95;;;10.20;99.90;;;;;;5069635;28;20166;-63
2022/04/30 07:12:06;;;;;;;10.73;6.22;;;10.20;99.90;;;;;;5068786;28;20041;-62
2022/04/30 07:14:37;;;;;;;11.57;6.85;;;10.30;99.90;;;;;;5070755;28;20084;-62
2022/04/30 07:17:07;;;;;;;10.52;6.53;;;10.40;99.90;;;;;;5070406;28;20049;-63
2022/04/30 07:19:33;;;;;;;9.38;6.50;;;10.50;99.90;;;;;;5069931;28;20052;-62
2022/04/30 07:22:00;;;;;;;10.77;6.43;;;10.50;99.90;;;;;;5070120;28;20051;-64
2022/04/30 07:24:26;;;;;;;11.27;6.55;;;10.50;99.90;;;;;;5070503;28;20158;-62
2022/04/30 07:26:52;;;;;;;9.10;6.10;;;10.50;99.90;;;;;;5070620;28;20045;-62
2022/04/30 07:29:18;;;;;;;7.95;6.32;;;10.50;99.90;;;;;;5070372;28;20625;-63
2022/04/30 07:31:44;;;;;;;9.20;5.70;;;10.40;99.90;;;;;;5069722;28;20041;-63
2022/04/30 07:34:10;;;;;;;10.05;6.47;;;10.40;99.90;;;;;;5052428;28;20048;-63
2022/04/30 07:36:36;;;;;;;11.43;6.20;;;10.30;99.90;;;;;;5069547;28;20055;-63
2022/04/30 07:39:03;;;;;;;15.57;6.30;;;10.30;99.90;;;;;;5072663;28;20048;-65
2022/04/30 07:41:28;;;;;;;9.95;6.30;;;10.30;99.90;;;;;;5071779;28;20105;-63
2022/04/30 07:43:54;;;;;;;10.10;6.60;;;10.30;99.90;;;;;;5073501;28;20064;-63
2022/04/30 07:46:22;;;;;;;11.65;6.35;;;10.20;99.90;;;;;;5072600;28;20131;-63
2022/04/30 07:48:48;;;;;;;9.95;6.57;;;10.20;99.90;;;;;;5073347;28;20057;-63
2022/04/30 07:51:18;;;;;;;12.07;6.18;;;10.20;99.90;;;;;;5072177;28;20061;-62
2022/04/30 07:53:47;;;;;;;11.07;5.97;;;10.20;99.90;;;;;;5073947;28;20494;-62
2022/04/30 07:56:14;;;;;;;10.10;6.07;;;10.20;99.90;;;;;;5072833;28;20127;-63
2022/04/30 07:58:40;;;;;;;16.90;7.35;;;10.20;99.90;;;;;;5073074;28;20649;-61
2022/04/30 08:01:06;;;;;;;9.20;6.55;;;10.10;99.90;;;;;;5072305;28;20076;-63
2022/04/30 08:03:32;;;;;;;10.38;6.85;;;10.10;99.90;;;;;;5073952;28;20095;-62
2022/04/30 08:05:58;;;;;;;10.52;6.43;;;10.20;99.90;;;;;;5073708;28;20095;-63
2022/04/30 08:08:23;;;;;;;13.70;7.22;;;10.30;99.90;;;;;;5071341;28;20377;-63
2022/04/30 08:10:49;;;;;;;11.30;7.47;;;10.10;99.90;;;;;;5073793;28;20083;-63
2022/04/30 08:13:15;;;;;;;9.80;6.38;;;10.20;99.90;;;;;;5071813;28;20135;-63
2022/04/30 08:15:43;;;;;;;13.15;7.50;;;10.20;99.90;;;;;;5072713;28;20059;-63
2022/04/30 08:18:11;;;;;;;10.98;6.72;;;10.20;99.90;;;;;;5073539;28;20056;-62
2022/04/30 08:20:40;;;;;;;11.80;6.30;;;10.20;99.90;;;;;;5073736;28;20052;-63
2022/04/30 08:23:07;;;;;;;15.85;6.93;;;10.20;99.90;;;;;;5072349;28;20486;-66
2022/04/30 08:25:35;;;;;;;13.07;6.68;;;10.20;99.90;;;;;;5073316;28;20048;-62
2022/04/30 08:28:04;;;;;;;13.52;6.35;;;10.30;99.90;;;;;;5072941;28;20097;-63
2022/04/30 08:30:31;;;;;;;10.23;6.20;;;10.40;99.90;;;;;;5072687;28;20125;-64
2022/04/30 08:32:57;;;;;;;12.38;6.40;;;10.50;99.90;;;;;;5073397;28;20059;-63
2022/04/30 08:35:23;;;;;;;9.60;6.13;;;10.80;99.90;;;;;;5072277;28;20098;-62
2022/04/30 08:37:49;;;;;;;9.88;6.40;;;11.00;99.90;;;;;;5073664;28;20048;-62
2022/04/30 08:40:16;;;;;;;10.23;6.57;;;11.20;99.90;;;;;;5055344;28;20113;-63
2022/04/30 08:42:41;;;;;;;12.35;6.22;;;11.40;99.90;;;;;;5073068;28;20044;-62
2022/04/30 08:45:09;;;;;;;12.23;5.72;;;11.60;99.90;;;;;;5072886;28;20044;-62
2022/04/30 08:47:42;;;;;;;9.95;5.63;;;11.70;99.90;;;;;;5073358;28;20056;-63
2022/04/30 08:50:10;;;;;;;9.95;5.85;;;11.80;99.90;;;;;;5072076;28;20082;-63
2022/04/30 08:52:36;;;;;;;8.48;5.43;;;11.70;99.90;;;;;;5071613;28;20494;-63
2022/04/30 08:55:05;;;;;;;11.13;5.57;;;11.70;99.90;;;;;;5072402;28;20071;-63
2022/04/30 08:57:31;;;;;;;9.13;5.30;;;11.70;99.90;;;;;;5072829;28;20577;-64
2022/04/30 08:59:58;;;;;;;9.43;5.88;;;11.70;99.90;;;;;;5071978;28;20109;-62
2022/04/30 09:02:25;;;;;;;8.60;5.43;;;11.70;99.90;;;;;;5072728;28;20084;-65
2022/04/30 09:04:51;;;;;;;11.10;5.75;;;11.60;99.90;;;;;;5073195;28;20110;-63
2022/04/30 09:07:19;;;;;;;9.13;5.88;;;11.50;99.90;;;;;;5072766;28;20048;-63
2022/04/30 09:09:56;;;;;;;10.25;5.65;;;11.40;99.90;;;;;;5073479;28;20055;-62
2022/04/30 09:12:23;;;;;;;10.60;6.38;;;11.30;99.90;;;;;;5072849;28;20123;-62
2022/04/30 09:14:49;;;;;;;10.55;6.18;;;11.20;99.90;;;;;;5073196;28;20123;-62
2022/04/30 09:17:16;;;;;;;9.07;5.65;;;11.20;99.90;;;;;;5072503;28;20059;-65
2022/04/30 09:20:01;;;;;;;9.80;6.22;;;11.10;99.90;;;;;;5072943;28;20382;-61
2022/04/30 09:22:34;;;;;;;10.40;6.05;;;11.00;99.90;;;;;;5072487;28;20040;-62
2022/04/30 09:25:03;;;;;;;9.70;5.78;;;11.00;99.90;;;;;;5071984;28;20557;-63
2022/04/30 09:27:29;;;;;;;12.73;6.10;;;11.00;99.90;;;;;;5072539;28;20071;-61
2022/04/30 09:29:55;;;;;;;9.38;5.80;;;10.90;99.90;;;;;;5072831;28;20078;-62
2022/04/30 09:32:23;;;;;;;11.68;5.22;;;10.90;99.90;;;;;;5070832;28;20383;-62
2022/04/30 09:37:49;;;;;;;9.82;6.32;;;10.70;99.90;;;;;;5071002;28;20084;-60
2022/04/30 09:40:14;;;;;;;10.40;5.60;;;10.60;99.90;;;;;;5072608;28;20047;-61
2022/04/30 09:42:47;;;;;;;10.68;6.22;;;10.60;99.90;;;;;;5071612;28;20469;-61
2022/04/30 09:45:30;;;;;;;10.23;5.72;;;10.50;99.90;;;;;;5072309;28;20037;-62
2022/04/30 09:47:58;;;;;;;9.13;5.82;;;10.50;99.90;;;;;;5070964;28;20086;-62
2022/04/30 09:56:06;;;;;;;7.97;4.47;;;10.50;99.90;;;;;;5050582;28;20132;-61
2022/04/30 09:58:38;;;;;;;7.15;4.97;;;10.40;99.90;;;;;;5070532;28;20051;-61
2022/04/30 10:01:05;;;;;;;7.13;4.95;;;10.40;99.90;;;;;;5072027;28;20048;-63
2022/04/30 10:03:33;;;;;;;9.88;5.10;;;10.40;99.90;;;;;;5071744;28;20048;-63
2022/04/30 10:06:01;;;;;;;8.02;4.95;;;10.40;99.90;;;;;;5071889;28;20044;-63
2022/04/30 10:08:29;;;;;;;7.35;4.88;;;10.40;99.90;;;;;;5070051;28;20048;-63
2022/04/30 10:11:06;;;;;;;7.57;5.10;;;10.40;99.90;;;;;;5071848;28;20091;-64
2022/04/30 10:13:48;;;;;;;8.65;5.30;;;10.50;99.90;;;;;;5070344;28;20041;-63
2022/04/30 10:16:24;;;;;;;9.68;5.47;;;10.50;99.90;;;;;;5071246;28;20048;-63
2022/04/30 10:19:11;;;;;;;8.02;5.18;;;10.50;99.90;;;;;;5070371;28;20077;-63
2022/04/30 10:21:38;;;;;;;9.05;4.63;;;10.60;99.90;;;;;;5071247;28;20037;-65
2022/04/30 10:24:06;;;;;;;9.35;5.10;;;10.50;99.90;;;;;;5071696;28;20060;-62
2022/04/30 10:26:32;;;;;;;8.93;5.03;;;10.60;99.90;;;;;;5069893;28;20052;-63
2022/04/30 10:29:10;;;;;;;6.45;4.78;;;10.60;99.90;;;;;;5071542;28;20055;-66
2022/04/30 10:31:45;;;;;;;11.32;5.60;;;10.60;99.90;;;;;;5069677;28;20116;-63
2022/04/30 10:34:12;;;;;;;13.05;5.13;;;10.60;99.90;;;;;;5071650;28;20052;-65
2022/04/30 10:36:39;;;;;;;8.23;4.57;;;10.70;99.90;;;;;;5070980;28;20556;-62
2022/04/30 10:39:09;;;;;;;13.43;5.65;;;10.60;99.90;;;;;;5053690;28;20110;-62
2022/04/30 10:41:54;;;;;;;8.63;4.75;;;10.70;99.90;;;;;;5070171;28;20130;-62
2022/04/30 10:44:32;;;;;;;;;;;10.70;99.90;;;;;;5068640;28;20071;-64
2022/04/30 10:47:14;;;;;;;8.13;3.90;;;10.70;99.90;;;;;;5071283;28;20312;-62
2022/04/30 10:49:40;;;;;;;8.25;4.00;;;10.70;99.90;;;;;;5070695;28;20114;-63
2022/04/30 10:52:08;;;;;;;6.25;3.88;;;10.80;99.90;;;;;;5069140;28;20549;-62
2022/04/30 10:54:34;;;;;;;12.55;4.85;;;10.80;99.90;;;;;;5070226;28;20083;-61
2022/04/30 10:57:03;;;;;;;12.95;5.45;;;10.80;99.90;;;;;;5069373;28;20095;-62
2022/04/30 10:59:28;;;;;;;9.38;5.18;;;10.90;99.90;;;;;;5070780;28;20056;-68
2022/04/30 11:01:54;;;;;;;7.50;5.20;;;10.90;99.90;;;;;;5071043;28;20044;-63
2022/04/30 11:04:20;;;;;;;8.32;5.50;;;11.00;99.90;;;;;;5070833;28;20078;-63
2022/04/30 11:06:50;;;;;;;8.18;5.45;;;11.10;99.90;;;;;;5069289;28;20474;-62
2022/04/30 11:09:16;;;;;;;9.00;5.47;;;11.10;99.90;;;;;;5070694;28;20052;-63
2022/04/30 11:11:46;;;;;;;8.13;4.85;;;11.10;99.90;;;;;;5052258;28;20044;-64
2022/04/30 11:14:12;;;;;;;9.02;5.28;;;11.10;99.90;;;;;;5070338;28;20640;-62
2022/04/30 11:16:41;;;;;;;10.68;5.45;;;11.10;99.90;;;;;;5069315;28;20052;-62
2022/04/30 11:19:11;;;;;;;9.27;5.53;;;11.10;99.90;;;;;;5069672;28;20418;-62
2022/04/30 11:21:38;;;;;;;10.18;5.40;;;11.10;99.90;;;;;;5069232;28;20482;-64
2022/04/30 11:24:06;;;;;;;8.65;5.65;;;11.10;99.90;;;;;;5069606;28;20044;-62
2022/04/30 11:26:39;;;;;;;6.85;4.82;;;11.10;99.90;;;;;;5069821;28;20105;-70
2022/04/30 11:29:13;;;;;;;8.95;5.00;;;11.10;99.90;;;;;;5070179;28;20045;-63
2022/04/30 11:31:40;;;;;;;;;;;11.20;99.90;;;;;;5069637;28;20044;-62
2022/04/30 11:34:08;;;;;;;8.93;4.65;;;11.20;99.90;;;;;;5070883;28;20249;-62
2022/04/30 11:36:44;;;;;;;9.10;5.30;;;11.30;99.90;;;;;;5051762;28;20062;-68
2022/04/30 11:39:11;;;;;;;10.07;5.15;;;11.30;99.90;;;;;;5051982;28;20066;-63
2022/04/30 11:41:41;;;;;;;8.48;4.57;;;11.30;99.90;;;;;;5067763;28;20065;-63
2022/04/30 11:44:11;;;;;;;7.90;4.38;;;11.50;99.90;;;;;;5068443;28;20040;-63
2022/04/30 11:46:39;;;;;;;8.55;4.07;;;11.40;99.90;;;;;;5067693;28;20040;-63
2022/04/30 11:49:09;;;;;;;7.20;4.50;;;11.50;99.90;;;;;;5069053;28;20071;-63
2022/04/30 11:51:36;;;;;;;6.47;4.70;;;11.50;99.90;;;;;;5068802;28;20060;-68
2022/04/30 11:54:03;;;;;;;11.88;4.97;;;11.50;99.90;;;;;;5069945;28;20114;-63
2022/04/30 11:56:31;;;;;;;7.55;4.95;;;11.50;99.90;;;;;;5069852;28;20048;-64
2022/04/30 11:58:57;;;;;;;6.68;4.60;;;11.70;99.90;;;;;;5070290;28;20052;-62
2022/04/30 12:01:31;;;;;;;8.82;4.75;;;11.70;99.90;;;;;;5051980;28;20044;-64
2022/04/30 12:04:05;;;;;;;7.95;5.15;;;11.80;99.90;;;;;;5068743;28;20041;-62
2022/04/30 12:06:32;;;;;;;9.35;5.45;;;11.80;99.90;;;;;;5069080;28;20045;-63
2022/04/30 12:08:58;;;;;;;7.80;4.97;;;11.90;99.90;;;;;;5069125;28;20116;-64
2022/04/30 12:11:25;;;;;;;8.75;5.85;;;12.00;99.90;;;;;;5069097;28;20040;-63
2022/04/30 12:14:02;;;;;;;7.25;5.10;;;12.00;99.90;;;;;;5069897;28;20048;-62
2022/04/30 12:16:48;;;;;;;8.20;4.88;;;12.10;99.90;;;;;;5069123;28;20180;-63
2022/04/30 12:25:17;;;;;;;11.07;5.55;;;12.20;99.90;;;;;;5072251;28;20494;-63
2022/04/30 12:27:59;;;;;;;9.05;6.18;;;12.30;99.90;;;;;;5072962;28;20088;-63
2022/04/30 12:30:26;;;;;;;9.77;5.43;;;12.20;99.90;;;;;;5073962;28;20105;-64
2022/04/30 12:32:52;;;;;;;8.93;4.85;;;12.20;99.90;;;;;;5072053;28;20040;-62
2022/04/30 12:35:33;;;;;;;11.07;5.30;;;12.30;99.90;;;;;;5072352;28;20040;-63
2022/04/30 12:38:04;;;;;;;7.28;4.47;;;12.40;99.90;;;;;;5073182;28;20200;-62
2022/04/30 12:40:30;;;;;;;8.85;5.10;;;12.50;99.90;;;;;;5072412;28;20486;-63
2022/04/30 12:42:56;;;;;;;7.88;4.68;;;12.60;99.90;;;;;;5073175;28;20402;-63
2022/04/30 12:45:21;;;;;;;7.20;4.95;;;12.60;99.90;;;;;;5072761;28;20062;-62
2022/04/30 12:47:51;;;;;;;6.25;4.50;;;12.70;99.90;;;;;;5072192;28;20169;-62
2022/04/30 12:50:17;;;;;;;11.70;5.07;;;12.60;99.90;;;;;;5071947;28;20187;-63
2022/04/30 12:52:43;;;;;;;9.25;4.90;;;12.60;99.90;;;;;;5071697;28;20128;-68
2022/04/30 12:55:11;;;;;;;8.88;4.53;;;12.70;99.90;;;;;;5072270;28;20051;-64
2022/04/30 12:57:38;;;;;;;7.20;4.82;;;12.60;99.90;;;;;;5055776;28;20045;-65
2022/04/30 13:00:05;;;;;;;7.05;4.60;;;12.60;99.90;;;;;;5072808;28;20083;-63
2022/04/30 13:02:31;;;;;;;6.80;4.40;;;12.50;99.90;;;;;;5070966;28;20490;-67
2022/04/30 13:04:57;;;;;;;7.22;4.28;;;12.40;99.90;;;;;;5071712;28;20058;-64
2022/04/30 13:07:22;;;;;;;8.13;3.90;;;12.40;99.90;;;;;;5071841;28;20044;-62
2022/04/30 13:15:17;;;;;;;11.20;5.05;;;12.40;99.90;;;;;;5072043;28;20138;-66
2022/04/30 13:17:42;;;;;;;5.28;3.65;;;12.40;99.90;;;;;;5055227;28;20460;-62
2022/04/30 13:20:11;;;;;;;7.95;4.03;;;12.30;99.90;;;;;;5071351;28;20055;-64
2022/04/30 13:22:37;;;;;;;6.90;3.72;;;12.30;99.90;;;;;;5071864;28;20036;-64
2022/04/30 13:25:04;;;;;;;11.68;4.15;;;12.20;99.90;;;;;;5072457;28;20053;-64
2022/04/30 13:27:31;;;;;;;5.50;4.03;;;12.30;99.90;;;;;;5072826;28;20088;-62
2022/04/30 13:29:56;;;;;;;7.20;4.35;;;12.20;99.90;;;;;;5072316;28;20054;-63
2022/04/30 13:32:22;;;;;;;9.32;4.40;;;12.20;99.90;;;;;;5070741;28;20056;-62